• Join FlightAware (Why Join?)
  • Login
  • US Flag 
01:41PM EDT


 

Airport Tracker/Info


-or-


 

Live Flight TrackerFlight Track Log ✈ USC105 ✈ 22-Apr-2013 ✈ KYIP - KDPA

Flight Track Log - Related Links

Times and Time Zones

All times are in EDT time to prevent confusion due to time zone crossing. See the USC105 flight status page for this flight to view local times or setup timezone preferences in your user account.

Time Position Orientation Groundspeed Altitude Reporting Facility
EDT Latitude Longitude Course Direction KTS MPH feet Rate Location/Type
12:21AM 42.2064 -83.5828 240° Southwest 107 123 2,900  Level Cleveland Center
12:22AM 42.2047 -83.6414 268° West 145 167 3,700 660 Climbing Cleveland Center
12:23AM 42.2033 -83.6947 268° West 153 176 4,300 540 Climbing Cleveland Center
12:24AM 42.2017 -83.7564 268° West 158 182 4,800 420 Climbing Cleveland Center
12:26AM 42.2022 -83.8939 270° West 160 184 5,900 300 Climbing Chicago Center
12:27AM 42.2003 -83.9578 268° West 166 191 6,000  Climbing Chicago Center
12:28AM 42.1961 -84.0231 265° West 171 197 5,900 -60 Descending Chicago Center
12:29AM 42.1939 -84.0883 267° West 174 200 5,900  Level Chicago Center
12:30AM 42.1894 -84.1528 265° West 174 200 5,900  Level Chicago Center
12:31AM 42.1836 -84.2186 263° West 173 199 5,900  Level Chicago Center
12:32AM 42.1797 -84.2839 265° West 175 201 5,900  Level Chicago Center
12:33AM 42.1767 -84.3492 266° West 175 201 5,900  Level Chicago Center
12:34AM 42.1728 -84.4133 265° West 174 200 5,900  Level Chicago Center
12:35AM 42.1700 -84.4767 267° West 171 197 5,900  Level Chicago Center
12:36AM 42.1658 -84.5519 266° West 174 200 5,900  Level Chicago Center
12:37AM 42.1622 -84.6175 266° West 175 201 5,900  Level Chicago Center
12:38AM 42.1589 -84.6828 266° West 176 203 5,900  Level Chicago Center
12:39AM 42.1547 -84.7467 265° West 173 199 5,900  Level Chicago Center
12:40AM 42.1508 -84.8111 265° West 173 199 5,900  Level Chicago Center
12:42AM 42.1478 -84.8761 266° West 174 200 5,900  Level Chicago Center
12:43AM 42.1436 -84.9411 265° West 175 201 5,900  Level Chicago Center
12:44AM 42.1403 -85.0047 266° West 173 199 5,900  Level Chicago Center
12:45AM 42.1369 -85.0681 266° West 171 197 5,900  Level Chicago Center
12:46AM 42.1336 -85.1308 266° West 170 196 5,900  Level Chicago Center
12:47AM 42.1294 -85.1939 265° West 170 196 5,900  Level Chicago Center
12:48AM 42.1258 -85.2575 266° West 171 197 5,900  Level Chicago Center
12:49AM 42.1219 -85.3217 265° West 173 199 5,900  Level Chicago Center
12:50AM 42.1178 -85.3844 265° West 171 197 5,900  Level Chicago Center
12:51AM 42.1136 -85.4483 265° West 171 197 5,900  Level Chicago Center
12:52AM 42.1100 -85.5125 266° West 173 199 5,900  Level Chicago Center
12:53AM 42.1061 -85.5767 265° West 173 199 5,900  Level Chicago Center
12:54AM 42.1017 -85.6419 265° West 174 200 5,900  Level Chicago Center
12:55AM 42.0969 -85.7192 265° West 174 200 5,900  Level Chicago Center
12:56AM 42.0922 -85.7828 264° West 172 198 5,900  Level Chicago Center
12:57AM 42.0886 -85.8456 266° West 170 196 5,900  Level Chicago Center
12:58AM 42.0850 -85.9075 266° West 169 194 5,900  Level Chicago Center
12:59AM 42.0803 -85.9719 264° West 171 197 6,000  Climbing Chicago Center
01:00AM 42.0758 -86.0347 265° West 171 197 6,000  Level Chicago Center
01:01AM 42.0717 -86.0986 265° West 171 197 6,000  Level Chicago Center
01:02AM 42.0675 -86.1611 265° West 170 196 6,000  Level Chicago Center
01:03AM 42.0636 -86.2236 265° West 169 194 6,000  Level Chicago Center
01:04AM 42.0594 -86.2850 265° West 166 191 6,000 -60 Level Chicago Center
01:05AM 42.0550 -86.3447 264° West 163 188 5,900  Descending Chicago Center
01:06AM 42.0508 -86.4044 265° West 162 186 6,000  Climbing Chicago Center
01:07AM 42.0469 -86.4642 265° West 161 185 6,000  Level Chicago Center
01:08AM 42.0419 -86.5242 264° West 161 185 6,000  Level Chicago Center
01:09AM 42.0383 -86.5836 265° West 160 184 6,000  Level Chicago Center
01:10AM 42.0339 -86.6431 264° West 161 185 6,000  Level Chicago Center
01:11AM 42.0294 -86.7111 265° West 160 184 6,000  Level Chicago Center
01:12AM 42.0253 -86.7700 265° West 159 183 6,000  Level Chicago Center
01:13AM 42.0217 -86.8306 265° West 162 186 6,000  Level Chicago Center
01:14AM 42.0161 -86.8892 263° West 160 184 6,000 -60 Level Chicago Center
01:15AM 42.0128 -86.9497 266° West 162 186 5,900 -60 Descending Chicago Center
01:16AM 42.0072 -87.0072 263° West 157 181 5,900  Level Chicago Center
01:17AM 42.0031 -87.0678 265° West 161 185 5,900  Level Chicago Center
01:18AM 41.9983 -87.1275 264° West 162 186 5,900  Level Chicago Center
01:19AM 41.9936 -87.1894 264° West 168 193 5,900  Level Chicago Center
01:20AM 41.9883 -87.2489 263° West 163 188 5,900  Level Chicago Center
01:21AM 41.9842 -87.3106 265° West 167 192 5,900  Level Chicago Center
01:22AM 41.9792 -87.3719 264° West 166 191 5,900  Level Chicago Center
01:22AM 41.9833 -87.4167 277° West 165 190 5,900 -120 Level Chicago TRACON
01:23AM 41.9667 -87.4667 246° West 167 192 5,800 -60 Descending Chicago TRACON
01:24AM 41.9667 -87.5167 270° West 168 193 5,800  Level Chicago TRACON
01:25AM 41.9667 -87.5833 270° West 166 191 5,900  Climbing Chicago TRACON
01:26AM 41.9500 -87.6500 251° West 164 189 5,900 -120 Level Chicago TRACON
01:27AM 41.9500 -87.7000 270° West 162 186 5,700 -360 Descending Chicago TRACON
01:28AM 41.9500 -87.7667 270° West 177 204 5,200 -480 Descending Chicago TRACON
01:29AM 41.9500 -87.8333 270° West 179 206 4,800 -480 Descending Chicago TRACON
01:30AM 41.9500 -87.9000 270° West 185 213 4,300 -480 Descending Chicago TRACON
01:31AM 41.9333 -87.9667 251° West 186 214 3,900 -480 Descending Chicago TRACON
01:32AM 41.9333 -88.0333 270° West 178 205 3,500 -540 Descending Chicago TRACON
01:33AM 41.9500 -88.1000 289° West 181 208 2,900 -720 Descending Chicago TRACON
01:34AM 41.9431 -88.1467 259° West 178 205 2,300 -420 Descending Chicago Center
01:35AM 41.9461 -88.2117 274° West 179 206 2,200 -600 Descending Chicago Center
01:36AM 41.9275 -88.2419 230° Southwest 149 171 1,200 -600 Descending Chicago Center
01:37AM 41.9031 -88.2561 203° Southwest 139 160 1,000 -240 Descending Chicago Center